createdAt,value
2019-05-22T00:02:34.075Z,13.90
2019-05-22T00:05:27.306Z,13.90
2019-05-22T00:07:58.110Z,13.90
2019-05-22T00:10:29.515Z,13.90
2019-05-22T00:13:00.107Z,13.90
2019-05-22T00:15:32.005Z,13.90
2019-05-22T00:18:03.773Z,13.90
2019-05-22T00:20:33.706Z,13.90
2019-05-22T00:23:07.611Z,14.00
2019-05-22T00:25:38.804Z,14.00
2019-05-22T00:28:10.109Z,14.00
2019-05-22T00:30:42.339Z,13.90
2019-05-22T00:33:14.481Z,13.90
2019-05-22T00:35:45.440Z,13.90
2019-05-22T00:38:16.351Z,13.90
2019-05-22T00:40:51.677Z,13.90
2019-05-22T00:43:30.157Z,13.90
2019-05-22T00:46:04.854Z,13.80
2019-05-22T00:48:35.516Z,13.80
2019-05-22T00:51:37.933Z,13.80
2019-05-22T00:54:15.285Z,13.80
2019-05-22T00:57:05.165Z,13.80
2019-05-22T00:59:37.998Z,13.70
2019-05-22T01:02:10.474Z,13.70
2019-05-22T01:04:41.614Z,13.80
2019-05-22T01:07:20.939Z,13.80
2019-05-22T01:09:56.579Z,13.70
2019-05-22T01:12:29.737Z,13.70
2019-05-22T01:15:05.566Z,13.70
2019-05-22T01:17:37.154Z,13.80
2019-05-22T01:20:11.265Z,13.70
2019-05-22T01:22:42.705Z,13.70
2019-05-22T01:25:17.553Z,13.70
2019-05-22T01:27:48.906Z,13.70
2019-05-22T01:30:27.270Z,13.70
2019-05-22T01:33:01.168Z,13.80
2019-05-22T01:35:36.159Z,13.80
2019-05-22T01:38:07.392Z,13.80
2019-05-22T01:40:50.580Z,13.80
2019-05-22T01:43:23.826Z,13.80
2019-05-22T01:45:55.623Z,13.80
2019-05-22T01:48:31.963Z,13.80
2019-05-22T01:51:04.061Z,13.80
2019-05-22T01:53:38.711Z,13.80
2019-05-22T01:56:11.737Z,13.90
2019-05-22T01:58:42.959Z,13.80
2019-05-22T02:01:26.175Z,13.90
2019-05-22T02:04:02.224Z,13.90
2019-05-22T02:06:32.644Z,13.90
2019-05-22T02:09:31.037Z,13.80
2019-05-22T02:12:18.340Z,13.90
2019-05-22T02:14:50.899Z,13.80
2019-05-22T02:17:25.389Z,13.80
2019-05-22T02:19:55.780Z,13.80
2019-05-22T02:22:27.273Z,13.80
2019-05-22T02:24:57.886Z,13.80
2019-05-22T02:27:28.060Z,13.80
2019-05-22T02:29:59.424Z,13.90
2019-05-22T02:32:29.836Z,13.90
2019-05-22T02:35:01.141Z,13.90
2019-05-22T02:37:32.560Z,13.90
2019-05-22T02:40:02.464Z,13.90
2019-05-22T02:42:33.294Z,13.90
2019-05-22T02:45:04.058Z,13.90
2019-05-22T02:47:34.373Z,14.00
2019-05-22T02:50:05.497Z,13.90
2019-05-22T02:52:35.979Z,14.00
2019-05-22T02:55:07.089Z,14.00
2019-05-22T02:57:36.947Z,14.00
2019-05-22T03:00:09.375Z,14.00
2019-05-22T03:02:47.481Z,14.00
2019-05-22T03:05:19.005Z,13.90
2019-05-22T03:07:49.540Z,14.00
2019-05-22T03:10:22.940Z,14.00
2019-05-22T03:12:52.955Z,13.90
2019-05-22T03:15:26.098Z,13.90
2019-05-22T03:18:05.866Z,13.80
2019-05-22T03:20:37.668Z,13.80
2019-05-22T03:23:36.804Z,13.80
2019-05-22T03:26:10.758Z,13.70
2019-05-22T03:28:41.413Z,13.70
2019-05-22T03:31:13.195Z,13.70
2019-05-22T03:33:44.315Z,13.60
2019-05-22T03:36:21.379Z,13.60
2019-05-22T03:38:52.211Z,13.60
2019-05-22T03:41:22.823Z,13.50
2019-05-22T03:43:55.966Z,13.40
2019-05-22T03:46:33.572Z,13.40
2019-05-22T03:49:06.271Z,13.40
2019-05-22T03:51:40.679Z,13.30
2019-05-22T03:54:14.686Z,13.30
2019-05-22T03:56:47.495Z,13.20
2019-05-22T03:59:20.219Z,13.10
2019-05-22T04:01:51.645Z,13.10
2019-05-22T04:04:41.157Z,13.10
2019-05-22T04:07:19.424Z,13.00
2019-05-22T04:09:52.962Z,13.00
2019-05-22T04:12:23.787Z,13.00
2019-05-22T04:14:54.866Z,13.00
2019-05-22T04:17:26.871Z,12.90
2019-05-22T04:19:56.886Z,12.90
2019-05-22T04:22:27.218Z,12.90
2019-05-22T04:24:57.402Z,12.90
2019-05-22T04:27:29.268Z,12.90
2019-05-22T04:30:04.495Z,12.90
2019-05-22T04:32:41.507Z,12.80
2019-05-22T04:35:15.582Z,12.80
2019-05-22T04:37:47.133Z,12.70
2019-05-22T04:40:52.060Z,12.70
2019-05-22T04:43:24.112Z,12.70
2019-05-22T04:45:55.838Z,12.60
2019-05-22T04:48:27.890Z,12.60
2019-05-22T04:51:01.407Z,12.60
2019-05-22T04:53:31.425Z,12.60
2019-05-22T04:56:01.243Z,12.60
2019-05-22T04:58:31.304Z,12.60
2019-05-22T05:01:01.149Z,12.60
2019-05-22T05:03:31.241Z,12.50
2019-05-22T05:06:01.102Z,12.60
2019-05-22T05:08:31.133Z,12.60
2019-05-22T05:11:05.047Z,12.60
2019-05-22T05:13:37.070Z,12.60
2019-05-22T05:16:07.658Z,12.60
2019-05-22T05:18:38.382Z,12.60
2019-05-22T05:21:12.999Z,12.60
2019-05-22T05:23:47.859Z,12.60
2019-05-22T05:26:22.246Z,12.70
2019-05-22T05:28:55.986Z,12.70
2019-05-22T05:31:27.263Z,12.70
2019-05-22T05:34:20.741Z,12.70
2019-05-22T05:36:52.460Z,12.70
2019-05-22T05:40:09.682Z,12.70
2019-05-22T05:42:40.302Z,12.80
2019-05-22T05:45:13.537Z,12.80
2019-05-22T05:47:43.874Z,12.80
2019-05-22T05:50:15.223Z,12.80
2019-05-22T05:52:47.393Z,12.90
2019-05-22T05:55:17.831Z,12.90
2019-05-22T05:58:27.030Z,12.90
2019-05-22T06:01:10.300Z,12.90
2019-05-22T06:03:41.422Z,12.90
2019-05-22T06:06:51.750Z,13.00
2019-05-22T06:09:22.952Z,13.00
2019-05-22T06:11:56.173Z,13.10
2019-05-22T06:14:29.338Z,13.00
2019-05-22T06:17:44.926Z,13.10
2019-05-22T06:20:19.303Z,13.10
2019-05-22T06:23:46.300Z,13.10
2019-05-22T06:26:31.803Z,13.10
2019-05-22T06:29:03.825Z,13.10
2019-05-22T06:31:44.034Z,13.10
2019-05-22T06:34:14.002Z,13.00
2019-05-22T06:36:46.706Z,13.00
2019-05-22T06:39:20.007Z,13.00
2019-05-22T06:41:49.823Z,13.00
2019-05-22T06:44:28.512Z,13.00
2019-05-22T06:46:58.569Z,12.90
2019-05-22T06:49:44.782Z,12.90
2019-05-22T06:52:18.123Z,12.90
2019-05-22T06:54:50.993Z,12.90
2019-05-22T06:57:26.684Z,12.80
2019-05-22T07:00:12.212Z,12.80
2019-05-22T07:02:34.783Z,12.90
2019-05-22T07:05:07.663Z,12.90
2019-05-22T07:07:38.034Z,12.90
2019-05-22T07:10:12.852Z,12.90
2019-05-22T07:12:44.347Z,12.90
2019-05-22T07:15:46.646Z,13.00
2019-05-22T07:18:20.861Z,13.00
2019-05-22T07:20:52.395Z,13.10
2019-05-22T07:23:30.576Z,13.10
2019-05-22T07:26:02.518Z,13.20
2019-05-22T07:28:33.455Z,13.20
2019-05-22T07:31:05.331Z,13.30
2019-05-22T07:33:37.594Z,13.30
2019-05-22T07:36:16.459Z,13.40
2019-05-22T07:38:43.668Z,13.40
2019-05-22T07:41:15.218Z,13.50
2019-05-22T07:43:47.922Z,13.50
2019-05-22T07:46:25.490Z,13.50
2019-05-22T07:49:00.703Z,13.60
2019-05-22T07:51:32.323Z,13.60
2019-05-22T07:54:04.835Z,13.60
2019-05-22T07:56:38.216Z,13.60
2019-05-22T07:59:10.983Z,13.70
2019-05-22T08:01:42.132Z,13.70
2019-05-22T08:04:15.020Z,13.70
2019-05-22T08:06:48.872Z,13.70
2019-05-22T08:09:24.184Z,13.70
2019-05-22T08:12:00.730Z,13.80
2019-05-22T08:14:33.929Z,13.80
2019-05-22T08:17:09.354Z,13.80
2019-05-22T08:19:44.091Z,13.80
2019-05-22T08:22:18.849Z,13.80
2019-05-22T08:24:53.649Z,13.80
2019-05-22T08:27:35.397Z,13.90
2019-05-22T08:30:09.076Z,14.00
2019-05-22T08:32:43.169Z,14.20
2019-05-22T08:35:22.113Z,14.20
2019-05-22T08:37:51.925Z,14.20
2019-05-22T08:40:26.782Z,14.20
2019-05-22T08:43:02.819Z,14.30
2019-05-22T08:45:34.578Z,14.40
2019-05-22T08:48:09.660Z,14.40
2019-05-22T08:50:50.707Z,14.40
2019-05-22T08:53:26.008Z,14.40
2019-05-22T08:56:07.535Z,14.40
2019-05-22T08:58:44.760Z,14.50
2019-05-22T09:01:17.574Z,14.50
2019-05-22T09:03:50.561Z,14.60
2019-05-22T09:06:27.834Z,14.50
2019-05-22T09:09:01.593Z,14.40
2019-05-22T09:11:32.779Z,14.40
2019-05-22T09:14:06.843Z,14.30
2019-05-22T09:16:38.700Z,14.20
2019-05-22T09:19:11.719Z,14.10
2019-05-22T09:21:44.234Z,14.10
2019-05-22T09:24:17.642Z,14.00
2019-05-22T09:26:53.058Z,14.00
2019-05-22T09:29:27.413Z,13.90
2019-05-22T09:32:00.758Z,13.80
2019-05-22T09:34:31.776Z,13.80
2019-05-22T09:37:01.892Z,13.80
2019-05-22T09:39:36.004Z,13.70
2019-05-22T09:42:06.237Z,13.80
2019-05-22T09:44:38.144Z,13.80
2019-05-22T09:47:09.721Z,13.70
2019-05-22T09:49:40.741Z,13.70
2019-05-22T09:52:14.350Z,13.80
2019-05-22T09:54:47.647Z,13.90
2019-05-22T09:57:17.670Z,13.90
2019-05-22T09:59:48.869Z,13.90
2019-05-22T10:02:21.976Z,13.90
2019-05-22T10:04:53.468Z,14.00
2019-05-22T10:07:26.347Z,14.00
2019-05-22T10:09:56.175Z,14.00
2019-05-22T10:12:26.674Z,14.10
2019-05-22T10:15:06.066Z,14.10
2019-05-22T10:17:39.361Z,14.20
2019-05-22T10:20:18.203Z,14.20
2019-05-22T10:22:45.056Z,14.30
2019-05-22T10:25:18.113Z,14.30
2019-05-22T10:27:53.110Z,14.50
2019-05-22T10:30:27.057Z,14.60
2019-05-22T10:32:59.383Z,14.70
2019-05-22T10:35:33.638Z,14.90
2019-05-22T10:38:12.886Z,15.00
2019-05-22T10:40:44.220Z,15.20
2019-05-22T10:43:14.412Z,15.20
2019-05-22T10:45:45.191Z,15.20
2019-05-22T10:48:26.333Z,15.30
2019-05-22T10:50:57.241Z,15.40
2019-05-22T10:53:33.499Z,15.40
2019-05-22T10:56:04.189Z,15.50
2019-05-22T10:58:36.834Z,15.50
2019-05-22T11:01:10.296Z,15.50
2019-05-22T11:03:46.788Z,15.40
2019-05-22T11:06:17.234Z,15.40
2019-05-22T11:08:47.292Z,15.40
2019-05-22T11:11:21.026Z,15.20
2019-05-22T11:14:02.008Z,15.10
2019-05-22T11:16:34.344Z,15.00
2019-05-22T11:19:02.662Z,14.90
2019-05-22T11:21:34.735Z,15.00
2019-05-22T11:24:10.963Z,15.00
2019-05-22T11:26:44.099Z,15.00
2019-05-22T11:29:22.551Z,15.00
2019-05-22T11:31:57.936Z,15.00
2019-05-22T11:34:37.193Z,15.10
2019-05-22T11:37:08.134Z,15.20
2019-05-22T11:39:42.435Z,15.30
2019-05-22T11:42:10.638Z,15.40
2019-05-22T11:44:51.256Z,15.40
2019-05-22T11:47:22.948Z,15.50
2019-05-22T11:50:02.615Z,15.60
2019-05-22T11:52:31.777Z,15.80
2019-05-22T11:55:02.434Z,16.00
2019-05-22T11:57:34.132Z,16.10
2019-05-22T12:00:09.052Z,16.10
2019-05-22T12:02:39.284Z,16.20
2019-05-22T12:05:11.714Z,16.30
2019-05-22T12:07:45.040Z,16.40
2019-05-22T12:10:16.558Z,16.40
2019-05-22T12:12:57.239Z,16.30
2019-05-22T12:15:30.805Z,16.20
2019-05-22T12:18:07.031Z,16.00
2019-05-22T12:20:36.586Z,15.90
2019-05-22T12:23:09.748Z,15.80
2019-05-22T12:25:40.869Z,15.80
2019-05-22T12:28:15.947Z,15.80
2019-05-22T12:30:49.601Z,15.70
2019-05-22T12:33:23.970Z,15.70
2019-05-22T12:35:54.754Z,15.70
2019-05-22T12:38:27.101Z,15.60
2019-05-22T12:41:01.422Z,15.50
2019-05-22T12:43:32.922Z,15.50
2019-05-22T12:46:03.933Z,15.50
2019-05-22T12:48:42.411Z,15.50
2019-05-22T12:51:12.300Z,15.50
2019-05-22T12:53:47.520Z,15.50
2019-05-22T12:56:19.889Z,15.50
2019-05-22T12:58:51.483Z,15.40
2019-05-22T13:01:25.709Z,15.30
2019-05-22T13:04:00.778Z,15.20
2019-05-22T13:06:32.382Z,15.20
2019-05-22T13:09:04.501Z,15.20
2019-05-22T13:11:37.765Z,15.10
2019-05-22T13:14:07.584Z,15.20
2019-05-22T13:16:39.339Z,15.10
2019-05-22T13:19:13.099Z,15.00
2019-05-22T13:21:47.935Z,15.00
2019-05-22T13:24:23.168Z,15.00
2019-05-22T13:26:57.477Z,15.00
2019-05-22T13:29:32.970Z,15.00
2019-05-22T13:32:03.231Z,15.00
2019-05-22T13:34:34.816Z,15.00
2019-05-22T13:37:08.508Z,14.90
2019-05-22T13:39:41.799Z,14.90
2019-05-22T13:42:16.416Z,14.90
2019-05-22T13:44:48.131Z,14.80
2019-05-22T13:47:17.924Z,14.80
2019-05-22T13:49:48.306Z,14.80
2019-05-22T13:52:19.384Z,14.70
2019-05-22T13:54:51.396Z,14.70
2019-05-22T13:57:26.167Z,14.60
2019-05-22T13:59:56.066Z,14.60
2019-05-22T14:02:27.543Z,14.50
2019-05-22T14:04:58.514Z,14.50
2019-05-22T14:07:31.142Z,14.40
2019-05-22T14:10:02.186Z,14.40
2019-05-22T14:12:32.212Z,14.30
2019-05-22T14:15:02.776Z,14.20
2019-05-22T14:17:37.377Z,14.20
2019-05-22T14:20:10.078Z,14.10
2019-05-22T14:22:42.846Z,14.10
2019-05-22T14:25:16.963Z,14.10
2019-05-22T14:27:48.042Z,14.10
2019-05-22T14:30:20.167Z,14.10
2019-05-22T14:32:51.281Z,14.10
2019-05-22T14:35:24.003Z,14.10
2019-05-22T14:37:56.826Z,14.10
2019-05-22T14:40:26.850Z,14.10
2019-05-22T14:42:57.351Z,14.10
2019-05-22T14:45:27.329Z,14.10
2019-05-22T14:47:59.673Z,14.10
2019-05-22T14:50:32.745Z,14.10
2019-05-22T14:53:02.509Z,14.00
2019-05-22T14:55:34.850Z,14.00
2019-05-22T14:58:06.989Z,14.00
2019-05-22T15:00:39.742Z,14.00
2019-05-22T15:03:10.442Z,13.90
2019-05-22T15:05:40.398Z,13.90
2019-05-22T15:08:10.323Z,13.90
2019-05-22T15:10:40.874Z,13.90
2019-05-22T15:13:11.189Z,13.90
2019-05-22T15:15:46.199Z,13.80
2019-05-22T15:18:17.633Z,13.80
2019-05-22T15:21:12.194Z,13.80
2019-05-22T15:23:43.900Z,13.80
2019-05-22T15:26:13.802Z,13.80
2019-05-22T15:28:43.819Z,13.80
2019-05-22T15:31:14.512Z,13.80
2019-05-22T15:33:44.866Z,13.80
2019-05-22T15:36:19.307Z,13.80
2019-05-22T15:38:50.575Z,13.80
2019-05-22T15:41:20.982Z,13.80
2019-05-22T15:43:53.514Z,13.80
2019-05-22T15:46:25.695Z,13.80
2019-05-22T15:48:56.822Z,13.80
2019-05-22T15:51:32.266Z,13.90
2019-05-22T15:54:04.539Z,13.90
2019-05-22T15:56:36.492Z,13.90
2019-05-22T15:59:09.093Z,13.90
2019-05-22T16:01:42.254Z,13.90
2019-05-22T16:04:16.010Z,13.90
2019-05-22T16:06:47.000Z,13.90
2019-05-22T16:09:19.883Z,13.80
2019-05-22T16:11:53.358Z,13.80
2019-05-22T16:14:23.816Z,13.70
2019-05-22T16:16:54.799Z,13.70
2019-05-22T16:19:29.373Z,13.70
2019-05-22T16:22:03.719Z,13.70
2019-05-22T16:24:36.176Z,13.60
2019-05-22T16:27:06.846Z,13.60
2019-05-22T16:29:38.473Z,13.60
2019-05-22T16:32:10.340Z,13.50
2019-05-22T16:34:42.695Z,13.40
2019-05-22T16:37:13.887Z,13.40
2019-05-22T16:39:44.475Z,13.40
2019-05-22T16:42:14.603Z,13.40
2019-05-22T16:44:44.909Z,13.30
2019-05-22T16:47:16.331Z,13.30
2019-05-22T16:49:46.320Z,13.30
2019-05-22T16:52:17.444Z,13.30
2019-05-22T16:54:49.779Z,13.30
2019-05-22T16:57:21.142Z,13.20
2019-05-22T16:59:51.201Z,13.20
2019-05-22T17:02:21.637Z,13.20
2019-05-22T17:04:52.512Z,13.20
2019-05-22T17:07:27.768Z,13.20
2019-05-22T17:09:55.639Z,13.20
2019-05-22T17:12:26.494Z,13.20
2019-05-22T17:14:57.402Z,13.20
2019-05-22T17:17:27.205Z,13.20
2019-05-22T17:19:57.137Z,13.20
2019-05-22T17:22:28.305Z,13.20
2019-05-22T17:24:58.389Z,13.20
2019-05-22T17:27:29.706Z,13.20
2019-05-22T17:30:00.003Z,13.20
2019-05-22T17:32:30.082Z,13.20
2019-05-22T17:35:00.309Z,13.20
2019-05-22T17:37:31.223Z,13.20
2019-05-22T17:40:01.409Z,13.20
2019-05-22T17:42:32.649Z,13.20
2019-05-22T17:45:04.312Z,13.20
2019-05-22T17:47:34.599Z,13.20
2019-05-22T17:50:05.234Z,13.20
2019-05-22T17:52:37.348Z,13.20
2019-05-22T17:55:10.527Z,13.20
2019-05-22T17:57:43.528Z,13.30
2019-05-22T18:00:25.083Z,13.20
2019-05-22T18:02:54.916Z,13.30
2019-05-22T18:05:25.831Z,13.20
2019-05-22T18:07:55.753Z,13.30
2019-05-22T18:10:30.558Z,13.30
2019-05-22T18:13:03.086Z,13.20
2019-05-22T18:15:35.823Z,13.20
2019-05-22T18:18:07.906Z,13.20
2019-05-22T18:20:43.460Z,13.20
2019-05-22T18:23:09.510Z,13.10
2019-05-22T18:25:39.642Z,13.20
2019-05-22T18:28:11.006Z,13.20
2019-05-22T18:30:42.965Z,13.20
2019-05-22T18:33:13.486Z,13.10
2019-05-22T18:35:43.343Z,13.20
2019-05-22T18:38:13.180Z,13.20
2019-05-22T18:40:42.953Z,13.20
2019-05-22T18:43:13.617Z,13.20
2019-05-22T18:45:43.479Z,13.20
2019-05-22T18:48:13.501Z,13.20
2019-05-22T18:50:43.392Z,13.20
2019-05-22T18:53:13.262Z,13.20
2019-05-22T18:55:43.095Z,13.20
2019-05-22T18:58:13.059Z,13.20
2019-05-22T19:00:43.078Z,13.20
2019-05-22T19:03:13.268Z,13.20
2019-05-22T19:05:44.052Z,13.20
2019-05-22T19:08:13.986Z,13.20
2019-05-22T19:10:43.918Z,13.20
2019-05-22T19:13:14.688Z,13.20
2019-05-22T19:15:44.714Z,13.20
2019-05-22T19:18:14.599Z,13.20
2019-05-22T19:20:44.922Z,13.20
2019-05-22T19:23:14.976Z,13.30
2019-05-22T19:25:44.818Z,13.30
2019-05-22T19:28:14.722Z,13.30
2019-05-22T19:30:44.693Z,13.20
2019-05-22T19:33:15.243Z,13.20
2019-05-22T19:35:45.284Z,13.20
2019-05-22T19:38:15.595Z,13.20
2019-05-22T19:40:45.321Z,13.20
2019-05-22T19:43:15.310Z,13.20
2019-05-22T19:45:45.318Z,13.20
2019-05-22T19:48:16.047Z,13.20
2019-05-22T19:50:47.030Z,13.20
2019-05-22T19:53:20.290Z,13.20
2019-05-22T19:55:51.323Z,13.20
2019-05-22T19:58:22.285Z,13.20
2019-05-22T20:00:52.686Z,13.20
2019-05-22T20:03:22.744Z,13.20
2019-05-22T20:05:53.474Z,13.20
2019-05-22T20:08:23.466Z,13.20
2019-05-22T20:10:53.873Z,13.30
2019-05-22T20:13:25.035Z,13.30
2019-05-22T20:15:55.477Z,13.30
2019-05-22T20:18:27.059Z,13.30
2019-05-22T20:20:57.055Z,13.30
2019-05-22T20:23:36.504Z,13.30
2019-05-22T20:26:07.429Z,13.20
2019-05-22T20:28:45.865Z,13.20
2019-05-22T20:31:17.817Z,13.20
2019-05-22T20:33:47.636Z,13.20
2019-05-22T20:36:17.751Z,13.20
2019-05-22T20:38:48.275Z,13.20
2019-05-22T20:41:26.935Z,13.20
2019-05-22T20:43:58.543Z,13.20
2019-05-22T20:46:28.375Z,13.10
2019-05-22T20:48:59.398Z,13.10
2019-05-22T20:51:29.390Z,13.10
2019-05-22T20:54:00.261Z,13.10
2019-05-22T20:56:32.060Z,13.10
2019-05-22T20:59:02.469Z,13.10
2019-05-22T21:01:33.363Z,13.10
2019-05-22T21:04:06.645Z,13.10
2019-05-22T21:06:46.041Z,13.10
2019-05-22T21:09:19.715Z,13.10
2019-05-22T21:11:57.465Z,13.10
2019-05-22T21:14:33.864Z,13.10
2019-05-22T21:17:08.676Z,13.10
2019-05-22T21:19:40.590Z,13.10
2019-05-22T21:22:13.631Z,13.10
2019-05-22T21:24:45.982Z,13.10
2019-05-22T21:27:18.763Z,13.10
2019-05-22T21:29:53.575Z,13.00
2019-05-22T21:32:29.464Z,13.00
2019-05-22T21:35:01.288Z,13.10
2019-05-22T21:37:32.705Z,13.00
2019-05-22T21:40:09.337Z,13.00
2019-05-22T21:42:43.068Z,13.00
2019-05-22T21:45:15.615Z,13.00
2019-05-22T21:47:46.240Z,13.00
2019-05-22T21:50:21.482Z,13.00
2019-05-22T21:52:55.650Z,12.90
2019-05-22T21:55:27.118Z,12.90
2019-05-22T21:57:59.783Z,12.90
2019-05-22T22:00:43.710Z,12.90
2019-05-22T22:03:16.897Z,12.90
2019-05-22T22:05:48.467Z,12.90
2019-05-22T22:08:18.211Z,12.90
2019-05-22T22:10:49.753Z,12.90
2019-05-22T22:13:20.059Z,13.00
2019-05-22T22:15:52.065Z,12.90
2019-05-22T22:18:30.589Z,12.90
2019-05-22T22:21:04.000Z,12.90
2019-05-22T22:23:36.744Z,12.90
2019-05-22T22:26:25.442Z,12.90
2019-05-22T22:28:49.116Z,12.90
2019-05-22T22:31:21.532Z,12.90
2019-05-22T22:33:55.011Z,12.80
2019-05-22T22:36:26.964Z,12.80
2019-05-22T22:38:59.906Z,12.80
2019-05-22T22:41:29.931Z,12.80
2019-05-22T22:44:01.354Z,12.80
2019-05-22T22:46:40.042Z,12.80
2019-05-22T22:49:20.074Z,12.80
2019-05-22T22:51:51.310Z,12.80
2019-05-22T22:54:23.790Z,12.70
2019-05-22T22:56:57.801Z,12.80
2019-05-22T22:59:29.855Z,12.80
2019-05-22T23:02:02.947Z,12.80
2019-05-22T23:04:32.829Z,12.70
2019-05-22T23:07:09.674Z,12.70
2019-05-22T23:09:42.682Z,12.80
2019-05-22T23:12:16.262Z,12.70
2019-05-22T23:14:53.482Z,12.70
2019-05-22T23:17:28.328Z,12.70
2019-05-22T23:19:57.978Z,12.80
2019-05-22T23:22:27.556Z,12.70
2019-05-22T23:24:59.822Z,12.70
2019-05-22T23:27:35.537Z,12.70
2019-05-22T23:30:06.732Z,12.70
2019-05-22T23:32:36.968Z,12.70
2019-05-22T23:35:08.933Z,12.70
2019-05-22T23:37:40.991Z,12.70
2019-05-22T23:40:12.823Z,12.70
2019-05-22T23:42:44.489Z,12.70
2019-05-22T23:45:18.752Z,12.70
2019-05-22T23:48:09.047Z,12.70
2019-05-22T23:50:39.341Z,12.70
2019-05-22T23:53:11.244Z,12.70
2019-05-22T23:55:43.294Z,12.70
2019-05-22T23:58:16.582Z,12.70
